Taylorsville, Georgia
Current Conditions -  °F | °C
As of 12:53 PM on Friday 28 Nov 2014 (Local Time) from KVPC Reporting Station
Clear Clear  
Wind Chill: 41°   Ceiling: Unl
Heat Index: 41°   Visibility: 10mi
Dew Point: 19°   Wind: 0mph
Humidity: 41%   Direction: NA
Pressure: 30.37"   Gusts: NA
Location:  34.09°N, 84.99°W
Report Text: KVPC 281753Z AUTO 00000KT 10SM CLR 05/M07 A3037 RMK AO2 SLP285 T00501072 10056 21039 58022
Loading
Personal Weather Stations






























Interactive Weather Map New forecast layout! Learn more

10-Day Weather Forecast

Advertisements
Track Severe Weather on mobile